Time;durP1;ratioP1;P1;durP2;ratioP2;P2;SDS_P1;SDS_P2;PMS_P1;PMS_P2;Temp;Humidity;BMP_temperature;BMP_pressure;BME280_temperature;BME280_humidity;BME280_pressure;Samples;Min_cycle;Max_cycle;Signal;HPM_P1;HPM_P2
2021/10/19 00:01:08;;;;;;;19.55;16.60;;;;;;;11.24;67.12;95389.28;827516;71;29717;-78
2021/10/19 00:16:29;;;;;;;22.37;16.62;;;;;;;10.95;66.53;95363.65;833334;71;33255;-79
2021/10/19 00:31:14;;;;;;;22.45;18.10;;;;;;;11.14;66.46;95395.89;826750;71;32723;-78
2021/10/19 00:46:16;;;;;;;20.57;15.90;;;;;;;11.07;66.65;95390.92;826467;71;33535;-79
2021/10/19 01:01:26;;;;;;;20.92;16.57;;;;;;;10.94;67.38;95394.11;826806;71;32781;-76
2021/10/19 01:16:11;;;;;;;18.82;13.90;;;;;;;10.78;66.63;95387.56;833386;71;29660;-78
2021/10/19 01:31:16;;;;;;;17.62;14.47;;;;;;;10.67;66.38;95383.41;826732;71;32768;-78
2021/10/19 01:46:14;;;;;;;16.90;13.70;;;;;;;10.53;66.36;95392.35;833519;71;32938;-78
2021/10/19 02:01:18;;;;;;;14.85;12.15;;;;;;;10.37;66.58;95407.84;829027;71;32825;-78
2021/10/19 02:16:32;;;;;;;13.90;11.15;;;;;;;10.26;66.17;95403.61;826748;71;32689;-79
2021/10/19 02:31:10;;;;;;;11.48;9.95;;;;;;;10.14;66.01;95410.45;827559;71;30590;-78
2021/10/19 02:46:44;;;;;;;11.18;9.50;;;;;;;10.05;66.01;95418.55;829150;71;33086;-80
2021/10/19 03:16:22;;;;;;;11.65;9.58;;;;;;;10.35;66.28;95430.93;834919;71;32805;-80
2021/10/19 03:31:14;;;;;;;11.33;9.50;;;;;;;10.15;66.17;95440.85;833027;71;33179;-77
2021/10/19 03:46:31;;;;;;;;;;;;;;;;;;;;;
2021/10/19 04:01:18;;;;;;;12.37;9.55;;;;;;;9.81;67.14;95440.00;834866;70;32888;-79
2021/10/19 04:16:08;;;;;;;13.95;9.75;;;;;;;9.65;67.36;95451.48;827789;71;30125;-81
2021/10/19 04:31:08;;;;;;;14.33;9.50;;;;;;;9.48;67.90;95464.27;815891;70;29608;-75
2021/10/19 04:46:13;;;;;;;12.93;9.95;;;;;;;9.27;68.29;95467.33;833358;71;33101;-76
2021/10/19 05:01:08;;;;;;;10.95;9.50;;;;;;;9.12;68.66;95486.88;827949;71;29972;-76
2021/10/19 05:16:09;;;;;;;12.30;9.35;;;;;;;9.13;69.10;95513.34;826890;71;30314;-77
2021/10/19 05:31:17;;;;;;;13.98;11.12;;;;;;;10.69;66.57;95527.52;826776;71;33608;-76
2021/10/19 05:46:14;;;;;;;15.45;11.08;;;;;;;13.37;60.70;95540.50;827026;71;33120;-76
2021/10/19 06:01:19;;;;;;;14.70;12.10;;;;;;;16.14;53.67;95554.87;808253;70;31175;-76
2021/10/19 06:16:08;;;;;;;14.05;12.10;;;;;;;17.56;49.93;95561.97;827714;71;30206;-77
2021/10/19 06:31:09;;;;;;;13.32;11.93;;;;;;;18.49;47.02;95577.50;829009;71;30381;-75
2021/10/19 06:46:14;;;;;;;14.13;11.63;;;;;;;19.24;44.95;95579.99;827035;71;33020;-76
2021/10/19 07:01:09;;;;;;;25.85;18.45;;;;;;;19.55;44.38;95591.77;833741;71;30277;-74
2021/10/19 07:16:14;;;;;;;24.35;17.00;;;;;;;20.11;43.25;95598.38;834323;71;32850;-75
2021/10/19 07:31:37;;;;;;;20.60;17.50;;;;;;;20.80;43.10;95593.23;828941;71;33095;-74
2021/10/19 07:46:09;;;;;;;18.60;16.23;;;;;;;21.13;40.93;95593.04;827789;71;30595;-77
2021/10/19 08:01:08;;;;;;;13.67;12.27;;;;;;;21.80;39.77;95583.88;834164;71;30173;-74
2021/10/19 08:16:14;;;;;;;12.00;10.80;;;;;;;22.69;37.96;95587.77;827648;71;32759;-74
2021/10/19 08:31:15;;;;;;;11.57;9.80;;;;;;;23.27;36.31;95588.80;833810;71;32790;-77
2021/10/19 08:46:10;;;;;;;9.90;9.00;;;;;;;23.08;40.27;95577.41;827823;71;29694;-78
2021/10/19 09:16:14;;;;;;;9.87;7.60;;;;;;;23.66;32.10;95558.78;823654;71;33274;-78
2021/10/19 09:31:09;;;;;;;8.80;8.00;;;;;;;24.08;32.63;95554.27;827989;71;29769;-76
2021/10/19 09:46:15;;;;;;;8.40;7.70;;;;;;;23.86;30.92;95542.27;833672;71;32683;-79
2021/10/19 10:01:10;;;;;;;9.70;8.40;;;;;;;22.84;34.14;95537.31;833711;71;29840;-75
2021/10/19 10:16:12;;;;;;;9.83;8.93;;;;;;;21.20;34.94;95520.63;828278;71;30279;-75
2021/10/19 10:31:22;;;;;;;8.40;7.60;;;;;;;23.11;39.06;95511.67;793100;74;32997;-78
2021/10/19 10:46:12;;;;;;;10.43;9.40;;;;;;;21.61;33.62;95490.13;833880;71;29674;-76
2021/10/19 11:01:20;;;;;;;9.57;8.57;;;;;;;22.60;33.63;95482.77;834022;71;33177;-77
2021/10/19 11:16:09;;;;;;;9.13;8.33;;;;;;;22.60;33.04;95467.48;834117;71;30578;-77
2021/10/19 11:31:16;;;;;;;10.37;9.20;;;;;;;22.57;32.77;95459.37;827398;71;33235;-77
2021/10/19 11:46:17;;;;;;;8.60;7.80;;;;;;;21.27;34.68;95441.36;828046;71;33216;-77
2021/10/19 12:01:10;;;;;;;8.13;7.37;;;;;;;20.68;35.28;95421.66;824529;71;29753;-77
2021/10/19 12:16:12;;;;;;;7.80;7.10;;;;;;;22.17;41.73;95415.45;827930;71;30157;-76
2021/10/19 12:31:09;;;;;;;7.03;6.43;;;;;;;21.20;35.97;95407.19;833689;71;30283;-76
2021/10/19 12:46:13;;;;;;;9.10;8.20;;;;;;;20.45;35.39;95390.00;833284;71;32489;-75
2021/10/19 13:01:10;;;;;;;6.75;6.25;;;;;;;20.33;35.47;95404.06;827987;71;30302;-77
2021/10/19 13:16:15;;;;;;;6.45;5.85;;;;;;;19.82;36.26;95399.38;827480;71;33226;-77
2021/10/19 13:31:08;;;;;;;9.08;6.35;;;;;;;19.18;36.77;95403.78;835469;71;29723;-76
2021/10/19 13:46:14;;;;;;;7.55;6.85;;;;;;;18.56;37.51;95411.67;827223;71;32637;-77
2021/10/19 14:01:14;;;;;;;8.18;7.47;;;;;;;17.91;38.76;95412.09;834281;71;32773;-76
2021/10/19 14:16:14;;;;;;;8.40;7.60;;;;;;;17.36;39.82;95419.22;827168;71;32705;-76
2021/10/19 14:31:15;;;;;;;8.13;7.30;;;;;;;16.87;40.60;95415.20;835299;71;32773;-78
2021/10/19 14:46:14;;;;;;;11.35;8.75;;;;;;;16.46;41.65;95408.77;826944;71;32730;-78
2021/10/19 15:16:09;;;;;;;14.78;12.75;;;;;;;15.56;44.61;95434.55;827877;71;30346;-77
2021/10/19 15:31:09;;;;;;;15.28;13.68;;;;;;;15.10;46.09;95444.67;828033;71;29657;-77
2021/10/19 15:46:15;;;;;;;17.95;14.70;;;;;;;14.62;49.08;95458.97;827333;71;32746;-78
2021/10/19 16:01:08;;;;;;;17.55;15.32;;;;;;;14.20;50.09;95456.67;827986;71;29724;-82
2021/10/19 16:16:08;;;;;;;21.12;15.68;;;;;;;13.79;50.63;95470.42;833235;71;29824;-76
2021/10/19 16:31:19;;;;;;;26.27;18.45;;;;;;;13.52;51.97;95471.00;833146;71;32770;-77
2021/10/19 16:46:15;;;;;;;28.27;21.77;;;;;;;13.26;53.23;95491.04;833563;71;33192;-77
2021/10/19 17:01:12;;;;;;;35.70;24.52;;;;;;;13.28;61.84;95503.41;834127;71;32113;-80
2021/10/19 17:16:14;;;;;;;25.85;19.32;;;;;;;13.78;53.41;95518.96;826897;71;33166;-78
2021/10/19 17:31:08;;;;;;;28.38;20.50;;;;;;;13.96;53.14;95531.94;827824;71;29720;-79
2021/10/19 17:46:08;;;;;;;26.20;19.90;;;;;;;13.42;52.25;95573.39;828165;71;30166;-78
2021/10/19 18:01:15;;;;;;;32.58;23.30;;;;;;;12.85;53.85;95568.32;821437;70;32764;-76
2021/10/19 18:16:19;;;;;;;38.73;26.35;;;;;;;12.52;54.96;95574.06;827352;71;32852;-80
2021/10/19 18:31:08;;;;;;;32.17;23.83;;;;;;;12.27;55.04;95559.75;828203;71;29733;-79
2021/10/19 18:46:09;;;;;;;36.48;25.55;;;;;;;12.18;56.18;95549.77;828039;71;30244;-76
2021/10/19 19:01:15;;;;;;;36.95;27.65;;;;;;;11.93;58.39;95533.59;827932;71;32711;-78
2021/10/19 19:16:18;;;;;;;36.20;25.60;;;;;;;11.69;59.38;95537.86;827513;71;31753;-77
2021/10/19 19:31:16;;;;;;;40.67;29.87;;;;;;;11.43;60.85;95543.18;827150;71;31692;-79
2021/10/19 19:46:10;;;;;;;38.60;29.35;;;;;;;11.16;61.88;95567.92;827519;71;29257;-78
2021/10/19 20:01:09;;;;;;;41.63;28.70;;;;;;;10.92;63.16;95586.58;833499;71;28482;-77
2021/10/19 20:16:17;;;;;;;30.92;22.70;;;;;;;10.83;63.39;95587.63;829006;71;31784;-81
2021/10/19 20:31:15;;;;;;;24.43;17.90;;;;;;;10.61;63.08;95596.52;833550;71;31827;-77
2021/10/19 20:46:08;;;;;;;28.20;19.57;;;;;;;10.50;63.95;95578.38;828043;71;29207;-77
2021/10/19 21:16:08;;;;;;;34.85;23.92;;;;;;;10.22;66.22;95601.39;833738;71;28673;-76
2021/10/19 21:31:15;;;;;;;33.88;24.75;;;;;;;10.05;66.68;95609.44;833116;71;31898;-79
2021/10/19 21:46:09;;;;;;;29.30;21.33;;;;;;;9.89;67.14;95594.16;827548;71;29256;-77
2021/10/19 22:01:16;;;;;;;29.12;20.88;;;;;;;9.69;67.65;95592.25;815979;71;31899;-79
2021/10/19 22:16:14;;;;;;;27.67;20.68;;;;;;;9.55;67.99;95587.98;833502;71;32398;-78
2021/10/19 22:31:18;;;;;;;22.95;17.30;;;;;;;9.42;68.77;95583.95;792627;74;31858;-78
2021/10/19 22:46:14;;;;;;;24.25;17.35;;;;;;;9.36;69.30;95563.23;826857;71;32524;-79
2021/10/19 23:01:08;;;;;;;22.37;16.75;;;;;;;;;;827558;71;28338;-77
2021/10/19 23:16:09;;;;;;;22.75;16.95;;;;;;;;;;827353;71;30760;-79
2021/10/19 23:31:11;;;;;;;21.93;16.60;;;;;;;8.92;70.50;95552.47;827371;71;30397;-79
2021/10/19 23:46:32;;;;;;;21.68;16.95;;;;;;;;;;833455;71;32779;-81
